Time;durP1;ratioP1;P1;durP2;ratioP2;P2;SDS_P1;SDS_P2;PMS_P1;PMS_P2;Temp;Humidity;BMP_temperature;BMP_pressure;BME280_temperature;BME280_humidity;BME280_pressure;Samples;Min_cycle;Max_cycle;Signal;HPM_P1;HPM_P2
2021/12/07 00:01:10;;;;;;;1.77;0.90;;;19.40;48.00;;;;;;5084981;28;20084;-50
2021/12/07 00:03:38;;;;;;;2.40;0.95;;;19.40;48.10;;;;;;5080793;28;20123;-52
2021/12/07 00:06:06;;;;;;;1.58;1.25;;;19.40;48.20;;;;;;5063913;28;20097;-49
2021/12/07 00:08:33;;;;;;;9.77;1.05;;;19.40;48.20;;;;;;5082239;28;20053;-49
2021/12/07 00:11:00;;;;;;;4.50;1.75;;;19.50;48.20;;;;;;5068110;28;20051;-49
2021/12/07 00:13:32;;;;;;;1.52;0.85;;;19.50;48.20;;;;;;5083217;28;20126;-49
2021/12/07 00:15:59;;;;;;;1.75;0.90;;;19.50;48.20;;;;;;5080687;28;20089;-49
2021/12/07 00:18:28;;;;;;;2.85;1.25;;;19.50;48.20;;;;;;5085061;28;20571;-50
2021/12/07 00:20:55;;;;;;;3.75;1.55;;;19.60;48.30;;;;;;5077799;28;20052;-51
2021/12/07 00:23:22;;;;;;;2.05;1.27;;;19.50;48.80;;;;;;5067505;28;20044;-49
2021/12/07 00:25:49;;;;;;;2.47;1.73;;;19.60;48.30;;;;;;5087664;28;20071;-53
2021/12/07 00:28:19;;;;;;;2.45;1.15;;;19.50;48.30;;;;;;5078708;28;20047;-50
2021/12/07 00:30:47;;;;;;;2.40;0.90;;;19.50;48.30;;;;;;5066026;28;20044;-50
2021/12/07 00:33:29;;;;;;;2.90;1.58;;;19.60;48.30;;;;;;5077131;28;20040;-50
2021/12/07 00:35:57;;;;;;;4.10;1.30;;;19.60;48.20;;;;;;5083981;28;20132;-53
2021/12/07 00:38:26;;;;;;;3.55;1.15;;;19.60;48.20;;;;;;5057978;28;20063;-50
2021/12/07 00:40:55;;;;;;;5.78;1.35;;;19.60;48.20;;;;;;5080896;28;20643;-52
2021/12/07 00:43:22;;;;;;;2.88;1.27;;;19.60;48.10;;;;;;5083036;28;20491;-52
2021/12/07 00:45:51;;;;;;;5.57;1.25;;;19.60;48.00;;;;;;5076439;28;20076;-51
2021/12/07 00:48:20;;;;;;;3.13;1.17;;;19.60;48.00;;;;;;5082612;28;20116;-52
2021/12/07 00:50:50;;;;;;;1.83;1.35;;;19.60;48.00;;;;;;5080343;28;20051;-51
2021/12/07 00:53:19;;;;;;;2.97;1.67;;;19.60;48.00;;;;;;5066306;28;20112;-51
2021/12/07 00:55:49;;;;;;;3.15;1.48;;;19.60;47.90;;;;;;5095271;28;20377;-48
2021/12/07 00:58:18;;;;;;;1.95;1.30;;;19.70;47.90;;;;;;5080106;28;20036;-50
2021/12/07 01:00:49;;;;;;;2.90;1.73;;;19.70;47.90;;;;;;5067817;28;20040;-50
2021/12/07 01:03:16;;;;;;;1.92;1.60;;;19.70;47.90;;;;;;5074675;28;20047;-53
2021/12/07 01:05:49;;;;;;;1.80;1.08;;;19.70;47.80;;;;;;5080296;28;20043;-49
2021/12/07 01:08:25;;;;;;;3.05;1.58;;;19.70;47.80;;;;;;5057302;28;20135;-49
2021/12/07 01:24:42;;;;;;;2.72;1.55;;;19.60;47.50;;;;;;5066078;28;20109;-48
2021/12/07 01:27:15;;;;;;;4.40;1.42;;;19.60;47.50;;;;;;5066779;28;20748;-53
2021/12/07 01:29:44;;;;;;;2.72;1.05;;;19.60;47.40;;;;;;5061016;28;20103;-48
2021/12/07 01:32:26;;;;;;;2.33;1.30;;;19.60;47.30;;;;;;5065507;28;20051;-50
2021/12/07 01:37:54;;;;;;;2.90;1.30;;;19.50;47.30;;;;;;5096810;28;20082;-50
2021/12/07 01:40:38;;;;;;;2.00;1.35;;;19.50;47.30;;;;;;5067808;28;20039;-49
2021/12/07 01:46:32;;;;;;;3.15;1.20;;;19.40;47.30;;;;;;5065182;28;20040;-49
2021/12/07 02:00:00;;;;;;;3.25;0.55;;;19.30;47.40;;;;;;4932162;29;20047;-47
2021/12/07 02:02:29;;;;;;;2.35;0.60;;;19.30;47.40;;;;;;4943577;29;20055;-48
2021/12/07 02:04:57;;;;;;;1.73;0.82;;;19.30;47.50;;;;;;4915722;29;20496;-51
2021/12/07 02:07:28;;;;;;;4.45;0.60;;;19.30;47.40;;;;;;4923258;29;20131;-52
2021/12/07 02:09:59;;;;;;;3.17;0.80;;;19.30;47.40;;;;;;4934196;29;20259;-49
2021/12/07 02:12:28;;;;;;;1.50;0.63;;;19.30;47.30;;;;;;4926475;29;20122;-49
2021/12/07 02:14:56;;;;;;;1.92;0.50;;;19.30;47.40;;;;;;4921692;29;20059;-53
2021/12/07 02:17:26;;;;;;;1.73;0.63;;;19.30;47.40;;;;;;4925242;29;20113;-51
2021/12/07 02:19:55;;;;;;;1.08;0.73;;;19.30;47.40;;;;;;4926724;29;20047;-47
2021/12/07 02:22:24;;;;;;;2.22;0.40;;;19.20;47.30;;;;;;4919258;29;20082;-51
2021/12/07 02:24:54;;;;;;;0.85;0.63;;;19.20;47.30;;;;;;4923434;29;20137;-50
2021/12/07 02:27:22;;;;;;;2.78;0.95;;;19.20;47.30;;;;;;4929653;28;20043;-52
2021/12/07 02:29:49;;;;;;;1.92;0.75;;;19.20;47.30;;;;;;5021634;28;20065;-48
2021/12/07 02:32:16;;;;;;;1.95;0.55;;;19.20;47.40;;;;;;5005237;28;20673;-47
2021/12/07 02:34:53;;;;;;;1.83;0.45;;;19.10;47.30;;;;;;5000668;28;20410;-47
2021/12/07 02:37:23;;;;;;;1.48;0.30;;;19.20;47.30;;;;;;5052038;28;20078;-49
2021/12/07 02:39:52;;;;;;;1.60;0.40;;;19.20;47.40;;;;;;5060188;28;20137;-50
2021/12/07 02:42:20;;;;;;;0.60;0.30;;;19.10;47.30;;;;;;5062292;28;20040;-49
2021/12/07 02:44:48;;;;;;;1.02;0.50;;;19.10;47.30;;;;;;5064429;28;20568;-48
2021/12/07 02:47:16;;;;;;;0.98;0.20;;;19.10;47.30;;;;;;5059430;28;20408;-48
2021/12/07 02:49:43;;;;;;;0.95;0.30;;;19.10;47.30;;;;;;5064255;28;20048;-51
2021/12/07 02:52:11;;;;;;;0.60;0.38;;;19.10;47.30;;;;;;5064471;28;20040;-50
2021/12/07 02:54:45;;;;;;;3.05;0.40;;;19.10;47.40;;;;;;5063545;28;20043;-51
2021/12/07 02:57:21;;;;;;;2.15;0.38;;;19.10;47.50;;;;;;5042492;28;20059;-51
2021/12/07 02:59:58;;;;;;;1.85;0.40;;;19.00;47.60;;;;;;5062950;28;20055;-51
2021/12/07 03:02:26;;;;;;;0.30;0.25;;;19.00;47.60;;;;;;5066211;28;20047;-49
2021/12/07 03:05:01;;;;;;;1.35;1.08;;;19.00;47.70;;;;;;5061880;28;20477;-50
2021/12/07 03:07:44;;;;;;;2.38;0.50;;;19.00;47.80;;;;;;5066858;28;20125;-50
2021/12/07 03:26:49;;;;;;;2.22;0.30;;;18.80;47.70;;;;;;4971924;28;20591;-48
2021/12/07 03:29:17;;;;;;;1.20;0.30;;;18.80;47.80;;;;;;4984056;28;20046;-49
2021/12/07 03:31:45;;;;;;;2.75;0.30;;;18.80;47.80;;;;;;4983783;28;20141;-51
2021/12/07 03:34:12;;;;;;;1.58;0.20;;;18.80;47.80;;;;;;4987269;28;20054;-51
2021/12/07 03:36:39;;;;;;;1.63;0.22;;;18.80;47.80;;;;;;4983630;28;20138;-53
2021/12/07 03:39:08;;;;;;;0.98;0.40;;;18.80;47.70;;;;;;4979732;28;20545;-50
2021/12/07 03:41:36;;;;;;;0.98;0.20;;;18.80;47.70;;;;;;4981925;28;20120;-52
2021/12/07 03:44:05;;;;;;;0.85;0.20;;;18.80;47.70;;;;;;5000818;28;20096;-50
2021/12/07 03:46:34;;;;;;;1.25;0.28;;;18.80;47.70;;;;;;4992942;28;20084;-47
2021/12/07 03:49:01;;;;;;;1.20;0.20;;;18.70;47.70;;;;;;4971272;28;20049;-50
2021/12/07 03:51:29;;;;;;;1.55;0.40;;;18.70;47.70;;;;;;5016761;28;20048;-51
2021/12/07 03:53:57;;;;;;;0.57;0.40;;;18.70;47.70;;;;;;5061496;28;20062;-51
2021/12/07 03:56:24;;;;;;;0.63;0.20;;;18.70;47.70;;;;;;5068560;28;20033;-51
2021/12/07 03:58:52;;;;;;;0.38;0.10;;;18.70;47.70;;;;;;5063189;28;20048;-50
2021/12/07 04:01:23;;;;;;;3.13;0.10;;;18.70;47.60;;;;;;5067332;28;20063;-50
2021/12/07 04:03:52;;;;;;;0.50;0.20;;;18.70;47.60;;;;;;5069192;28;20112;-51
2021/12/07 04:06:20;;;;;;;2.10;0.20;;;18.70;47.70;;;;;;5068609;28;20458;-50
2021/12/07 04:08:47;;;;;;;2.45;0.17;;;18.70;47.60;;;;;;5083117;28;20471;-54
2021/12/07 04:11:17;;;;;;;1.17;0.10;;;18.70;47.70;;;;;;5051488;28;20432;-48
2021/12/07 04:13:45;;;;;;;0.77;0.30;;;18.70;47.70;;;;;;5070498;28;20044;-50
2021/12/07 04:16:14;;;;;;;2.42;0.17;;;18.60;47.60;;;;;;5068420;28;20040;-52
2021/12/07 04:18:46;;;;;;;0.82;0.20;;;18.60;47.60;;;;;;5068280;28;20048;-52
2021/12/07 04:21:14;;;;;;;3.42;0.28;;;18.60;47.50;;;;;;5062577;28;20044;-50
2021/12/07 04:23:41;;;;;;;0.75;0.10;;;18.60;47.50;;;;;;5064080;28;20394;-48
2021/12/07 04:26:10;;;;;;;0.63;0.10;;;18.60;47.60;;;;;;5085280;28;20040;-52
2021/12/07 04:28:38;;;;;;;2.45;0.32;;;18.60;47.60;;;;;;5082155;28;20420;-50
2021/12/07 04:31:06;;;;;;;1.35;0.10;;;18.60;47.60;;;;;;5084340;28;20056;-48
2021/12/07 04:33:33;;;;;;;0.60;0.20;;;18.50;47.60;;;;;;5064810;28;20036;-49
2021/12/07 04:36:02;;;;;;;0.60;0.10;;;18.50;47.60;;;;;;5080563;28;20071;-54
2021/12/07 04:38:29;;;;;;;0.55;0.10;;;18.50;47.60;;;;;;5080296;28;20064;-50
2021/12/07 04:40:56;;;;;;;1.35;0.10;;;18.50;47.60;;;;;;5081617;28;20041;-52
2021/12/07 04:43:24;;;;;;;0.32;0.10;;;18.50;48.20;;;;;;5067971;28;20051;-48
2021/12/07 04:46:00;;;;;;;1.55;0.22;;;18.50;47.60;;;;;;5079113;28;20040;-51
2021/12/07 04:48:57;;;;;;;1.85;0.88;;;18.50;47.50;;;;;;5067222;28;20054;-51
2021/12/07 04:59:48;;;;;;;3.25;0.47;;;18.40;47.90;;;;;;5020941;28;20042;-51
2021/12/07 05:02:17;;;;;;;1.38;0.10;;;18.30;47.80;;;;;;4997358;28;20049;-52
2021/12/07 05:04:44;;;;;;;0.20;0.10;;;18.40;47.80;;;;;;5012695;28;20460;-48
2021/12/07 05:07:20;;;;;;;0.35;0.10;;;18.40;47.80;;;;;;5021439;28;20108;-52
2021/12/07 05:12:42;;;;;;;3.03;0.10;;;18.30;47.80;;;;;;5005451;28;20095;-52
2021/12/07 05:15:19;;;;;;;1.98;0.50;;;18.30;47.80;;;;;;5016096;28;20197;-48
2021/12/07 05:18:08;;;;;;;1.38;0.40;;;18.30;47.80;;;;;;5014693;28;20041;-52
2021/12/07 05:34:34;;;;;;;1.80;0.20;;;18.20;47.80;;;;;;4960580;28;20142;-48
2021/12/07 05:37:38;;;;;;;1.65;0.10;;;18.20;47.80;;;;;;5022743;28;20068;-49
2021/12/07 05:37:47;;;;;;;4.20;0.20;;;18.20;47.80;;;;;;5022754;28;20084;-52
2021/12/07 05:40:19;;;;;;;0.20;0.10;;;18.20;47.80;;;;;;5018436;28;20047;-50
2021/12/07 05:42:47;;;;;;;0.85;0.10;;;18.20;47.80;;;;;;5020593;28;20473;-56
2021/12/07 05:45:16;;;;;;;5.70;1.08;;;18.20;47.80;;;;;;5022390;28;20049;-50
2021/12/07 05:47:43;;;;;;;1.83;0.30;;;18.20;47.80;;;;;;5017172;28;20045;-50
2021/12/07 05:50:13;;;;;;;0.60;0.43;;;18.10;47.80;;;;;;5021146;28;20053;-54
2021/12/07 05:52:40;;;;;;;0.98;0.10;;;18.10;47.80;;;;;;5005202;28;20044;-53
2021/12/07 05:55:08;;;;;;;2.38;1.30;;;18.10;47.80;;;;;;5020882;28;20418;-50
2021/12/07 05:57:37;;;;;;;0.50;0.28;;;18.10;47.90;;;;;;5020998;28;20047;-51
2021/12/07 06:00:06;;;;;;;1.67;0.28;;;18.10;47.80;;;;;;5002163;28;20049;-50
2021/12/07 06:02:40;;;;;;;2.42;0.13;;;18.10;47.90;;;;;;5040086;28;20059;-51
2021/12/07 06:05:08;;;;;;;1.33;0.47;;;18.10;47.90;;;;;;5076834;28;20784;-50
2021/12/07 06:07:35;;;;;;;0.98;0.10;;;18.10;47.90;;;;;;5084978;28;20040;-51
2021/12/07 06:10:03;;;;;;;0.10;0.10;;;18.00;47.80;;;;;;5074727;28;20040;-49
2021/12/07 06:12:30;;;;;;;1.85;0.10;;;18.00;47.90;;;;;;5081488;28;20397;-52
2021/12/07 06:14:58;;;;;;;1.23;0.20;;;18.00;47.90;;;;;;5084716;28;20036;-50
2021/12/07 06:17:25;;;;;;;1.30;0.20;;;18.00;47.90;;;;;;5066442;28;20036;-50
2021/12/07 06:19:53;;;;;;;0.50;0.10;;;18.00;47.90;;;;;;5079764;28;20072;-50
2021/12/07 06:22:20;;;;;;;0.75;0.20;;;18.00;48.00;;;;;;5076763;28;20040;-51
2021/12/07 06:24:47;;;;;;;2.17;0.50;;;18.00;48.00;;;;;;5066191;28;20040;-49
2021/12/07 06:27:14;;;;;;;2.05;0.38;;;18.00;48.00;;;;;;5077703;28;20511;-49
2021/12/07 06:29:41;;;;;;;0.25;0.10;;;17.90;47.90;;;;;;5071471;28;20524;-53
2021/12/07 06:32:10;;;;;;;1.50;0.10;;;17.90;48.00;;;;;;5077674;28;20044;-53
2021/12/07 06:34:38;;;;;;;0.70;0.20;;;17.90;48.00;;;;;;5074752;28;20059;-54
2021/12/07 06:37:06;;;;;;;0.82;0.45;;;17.90;48.00;;;;;;5079973;28;20159;-53
2021/12/07 06:39:34;;;;;;;0.50;0.22;;;17.90;48.10;;;;;;5075995;28;20613;-53
2021/12/07 06:42:01;;;;;;;0.32;0.20;;;17.90;48.10;;;;;;5078128;28;20050;-52
2021/12/07 06:44:28;;;;;;;1.50;0.30;;;17.90;48.10;;;;;;5084064;28;20040;-50
2021/12/07 06:46:55;;;;;;;1.77;0.30;;;17.90;48.10;;;;;;5057339;28;20040;-52
2021/12/07 06:49:24;;;;;;;1.75;0.10;;;17.90;48.10;;;;;;5049458;28;20050;-54
2021/12/07 06:51:51;;;;;;;6.57;0.20;;;17.90;48.20;;;;;;5077472;28;20062;-54
2021/12/07 06:54:19;;;;;;;2.10;0.40;;;17.90;48.40;;;;;;5078683;28;20044;-51
2021/12/07 06:56:46;;;;;;;1.83;0.65;;;17.90;48.50;;;;;;5081403;28;20543;-51
2021/12/07 06:59:13;;;;;;;0.45;0.10;;;17.90;48.40;;;;;;5080467;28;20044;-52
2021/12/07 07:01:40;;;;;;;1.80;0.30;;;17.90;48.40;;;;;;5080138;28;20040;-50
2021/12/07 07:04:08;;;;;;;0.20;0.20;;;17.90;48.50;;;;;;5074283;28;20910;-48
2021/12/07 07:06:37;;;;;;;0.45;0.10;;;17.80;48.50;;;;;;5078255;28;20412;-47
2021/12/07 07:09:05;;;;;;;1.95;0.10;;;17.90;49.10;;;;;;5084692;28;20088;-47
2021/12/07 07:11:33;;;;;;;3.00;0.43;;;17.80;49.30;;;;;;5074572;28;20742;-47
2021/12/07 07:14:01;;;;;;;4.78;0.57;;;17.70;50.10;;;;;;5075786;28;20048;-49
2021/12/07 07:16:28;;;;;;;11.10;0.30;;;17.70;51.50;;;;;;5083438;28;20067;-46
2021/12/07 07:18:56;;;;;;;2.83;0.40;;;17.60;52.10;;;;;;5079629;28;20078;-46
2021/12/07 07:21:24;;;;;;;4.28;0.30;;;17.60;52.30;;;;;;5077990;28;20482;-48
2021/12/07 07:23:53;;;;;;;8.68;1.17;;;17.50;52.50;;;;;;5077145;28;20040;-45
2021/12/07 07:26:21;;;;;;;30.08;1.65;;;17.50;55.40;;;;;;5070110;28;20097;-48
2021/12/07 07:28:48;;;;;;;13.90;0.73;;;17.50;58.00;;;;;;5074099;28;20067;-51
2021/12/07 07:31:15;;;;;;;9.38;1.98;;;17.40;58.50;;;;;;5079871;28;20440;-49
2021/12/07 07:33:43;;;;;;;18.27;1.73;;;17.40;59.40;;;;;;5076157;28;20040;-49
2021/12/07 07:36:10;;;;;;;11.25;2.15;;;17.40;60.10;;;;;;5081253;28;20059;-47
2021/12/07 07:38:37;;;;;;;13.57;2.15;;;17.40;60.40;;;;;;5075594;28;20032;-51
2021/12/07 07:41:06;;;;;;;8.18;1.05;;;17.30;60.50;;;;;;5077216;28;20048;-47
2021/12/07 07:43:33;;;;;;;11.10;0.75;;;17.30;60.60;;;;;;5075624;28;20127;-52
2021/12/07 07:46:07;;;;;;;9.32;1.20;;;17.20;60.60;;;;;;5089149;28;20492;-49
2021/12/07 07:48:34;;;;;;;12.57;0.80;;;17.20;61.10;;;;;;5080339;28;20036;-51
2021/12/07 07:51:01;;;;;;;8.52;0.60;;;17.20;60.70;;;;;;5076680;28;20036;-48
2021/12/07 07:53:28;;;;;;;10.80;2.55;;;17.10;61.10;;;;;;5072425;28;20072;-50
2021/12/07 07:55:59;;;;;;;12.90;1.10;;;17.10;60.60;;;;;;5061844;28;20040;-51
2021/12/07 07:58:28;;;;;;;8.13;1.45;;;17.10;60.70;;;;;;5082123;28;20497;-51
2021/12/07 08:00:55;;;;;;;8.95;1.73;;;17.10;60.60;;;;;;5065126;28;20036;-50
2021/12/07 08:03:23;;;;;;;11.30;0.77;;;17.00;60.60;;;;;;5084592;28;20040;-48
2021/12/07 08:05:50;;;;;;;2.20;1.30;;;17.00;60.50;;;;;;5057265;28;20046;-51
2021/12/07 08:08:21;;;;;;;4.38;0.98;;;17.00;60.50;;;;;;5042888;28;20048;-53
2021/12/07 08:10:48;;;;;;;1.48;0.85;;;16.90;60.50;;;;;;5076880;28;20044;-49
2021/12/07 08:13:18;;;;;;;5.78;1.00;;;16.90;60.40;;;;;;5062242;28;20101;-48
2021/12/07 08:15:49;;;;;;;9.75;0.98;;;16.90;60.90;;;;;;5081331;28;20044;-49
2021/12/07 08:18:17;;;;;;;5.45;1.38;;;16.90;60.30;;;;;;5072584;28;20147;-49
2021/12/07 08:20:45;;;;;;;5.03;1.27;;;16.80;60.20;;;;;;5076778;28;20575;-49
2021/12/07 08:23:13;;;;;;;6.70;1.83;;;16.80;60.20;;;;;;5074642;28;20045;-50
2021/12/07 08:25:42;;;;;;;4.72;1.67;;;16.80;60.10;;;;;;5056302;28;20041;-49
2021/12/07 08:28:11;;;;;;;5.70;1.70;;;16.80;60.00;;;;;;5076863;28;20055;-49
2021/12/07 08:30:39;;;;;;;3.38;1.33;;;16.80;59.90;;;;;;5079557;28;20093;-52
2021/12/07 08:33:08;;;;;;;6.30;1.48;;;16.80;59.80;;;;;;5075037;28;20135;-48
2021/12/07 08:35:36;;;;;;;9.00;2.50;;;16.80;59.80;;;;;;5079411;28;20995;-52
2021/12/07 08:38:04;;;;;;;8.75;1.55;;;16.70;59.70;;;;;;5075519;28;20135;-51
2021/12/07 08:40:33;;;;;;;5.72;2.20;;;16.70;60.20;;;;;;5080838;28;20048;-49
2021/12/07 08:43:01;;;;;;;4.47;1.35;;;16.70;59.60;;;;;;5075939;28;20071;-48
2021/12/07 08:45:28;;;;;;;5.82;2.20;;;16.70;59.60;;;;;;5076559;28;20483;-49
2021/12/07 08:47:55;;;;;;;5.10;1.40;;;16.70;59.50;;;;;;5068475;28;20404;-49
2021/12/07 08:50:28;;;;;;;6.13;1.70;;;16.70;59.50;;;;;;5077207;28;20564;-49
2021/12/07 08:53:02;;;;;;;6.68;2.13;;;16.70;59.40;;;;;;5075206;28;20509;-55
2021/12/07 09:00:59;;;;;;;4.15;2.25;;;16.60;59.10;;;;;;5077574;28;20527;-48
2021/12/07 09:03:26;;;;;;;3.40;1.48;;;16.60;59.10;;;;;;5076373;28;20042;-49
2021/12/07 09:05:55;;;;;;;6.50;1.65;;;16.60;59.00;;;;;;5075631;28;20534;-48
2021/12/07 09:08:22;;;;;;;2.40;1.50;;;16.60;58.90;;;;;;5070662;28;20131;-52
2021/12/07 09:10:50;;;;;;;3.45;1.77;;;16.50;58.80;;;;;;5071319;28;20064;-48
2021/12/07 09:13:19;;;;;;;4.82;2.03;;;16.50;58.80;;;;;;5061654;28;20064;-48
2021/12/07 09:15:46;;;;;;;2.90;1.58;;;16.50;58.70;;;;;;5078581;28;20037;-47
2021/12/07 09:18:14;;;;;;;5.68;1.85;;;16.50;59.10;;;;;;5072877;28;20525;-47
2021/12/07 09:20:41;;;;;;;6.15;2.13;;;16.50;58.60;;;;;;5074136;28;20040;-51
2021/12/07 09:23:09;;;;;;;1.80;1.15;;;16.50;58.60;;;;;;5075985;28;20048;-49
2021/12/07 09:25:37;;;;;;;6.05;2.13;;;16.50;58.50;;;;;;5074000;28;20055;-50
2021/12/07 09:28:05;;;;;;;5.30;1.75;;;16.50;58.40;;;;;;5074667;28;20112;-47
2021/12/07 09:30:33;;;;;;;2.15;1.75;;;16.50;58.40;;;;;;5077814;28;20036;-50
2021/12/07 09:33:00;;;;;;;4.63;1.45;;;16.50;58.40;;;;;;5078470;28;20036;-48
2021/12/07 09:35:27;;;;;;;4.25;1.73;;;16.40;58.10;;;;;;5086091;28;20572;-49
2021/12/07 09:37:55;;;;;;;2.53;1.55;;;16.40;58.70;;;;;;5073231;28;20140;-50
2021/12/07 09:40:28;;;;;;;6.18;2.42;;;16.40;58.00;;;;;;5079790;28;20540;-50
2021/12/07 09:42:55;;;;;;;3.05;2.30;;;16.40;57.90;;;;;;5076244;28;20052;-50
2021/12/07 09:45:25;;;;;;;3.10;2.00;;;16.40;57.90;;;;;;5075536;28;20343;-51
2021/12/07 09:47:53;;;;;;;4.55;2.20;;;16.30;57.90;;;;;;5074489;28;20339;-48
2021/12/07 09:50:22;;;;;;;1.40;0.85;;;16.40;57.90;;;;;;5076828;28;20126;-51
2021/12/07 09:52:50;;;;;;;1.83;0.95;;;16.30;57.70;;;;;;5074977;28;20115;-49
2021/12/07 09:55:18;;;;;;;2.03;1.45;;;16.30;57.60;;;;;;5066075;28;20044;-48
2021/12/07 09:57:47;;;;;;;3.08;1.20;;;16.30;57.60;;;;;;5080201;28;20417;-49
2021/12/07 10:00:18;;;;;;;2.22;0.93;;;16.30;57.60;;;;;;5072420;28;20504;-50
2021/12/07 10:02:45;;;;;;;1.48;0.90;;;16.30;57.60;;;;;;5072281;28;20032;-51
2021/12/07 10:05:16;;;;;;;2.40;1.30;;;16.30;58.10;;;;;;5073889;28;20051;-49
2021/12/07 10:07:44;;;;;;;3.85;1.95;;;16.30;57.60;;;;;;5074279;28;20044;-51
2021/12/07 10:10:20;;;;;;;3.40;1.20;;;16.30;57.60;;;;;;5073611;28;20045;-49
2021/12/07 10:12:49;;;;;;;2.90;1.77;;;16.30;57.50;;;;;;5078412;28;20044;-50
2021/12/07 10:15:17;;;;;;;2.90;1.05;;;16.30;57.40;;;;;;5074294;28;20036;-52
2021/12/07 10:17:58;;;;;;;1.83;1.02;;;16.30;57.30;;;;;;5071435;28;20405;-49
2021/12/07 10:20:32;;;;;;;1.83;0.73;;;16.30;57.20;;;;;;5072705;28;20028;-49
2021/12/07 10:23:04;;;;;;;2.95;1.17;;;16.30;57.20;;;;;;5079531;28;20505;-48
2021/12/07 10:25:32;;;;;;;1.05;0.65;;;16.20;57.10;;;;;;5075058;28;20037;-49
2021/12/07 10:28:00;;;;;;;2.75;1.00;;;16.20;57.10;;;;;;5080601;28;21064;-50
2021/12/07 10:30:28;;;;;;;1.52;1.30;;;16.20;57.00;;;;;;5059137;28;20050;-50
2021/12/07 10:33:01;;;;;;;1.83;0.77;;;16.20;57.00;;;;;;5075235;28;20040;-48
2021/12/07 10:35:33;;;;;;;1.60;0.80;;;16.30;57.00;;;;;;5076690;28;20043;-48
2021/12/07 10:38:12;;;;;;;2.33;0.77;;;16.30;57.00;;;;;;5071600;28;20048;-49
2021/12/07 10:40:55;;;;;;;2.13;0.73;;;16.30;56.80;;;;;;5083537;28;20553;-48
2021/12/07 10:43:42;;;;;;;2.83;1.20;;;16.30;56.80;;;;;;5076432;28;20036;-52
2021/12/07 10:46:27;;;;;;;1.23;0.68;;;16.30;56.70;;;;;;5076565;28;20098;-51
2021/12/07 10:49:10;;;;;;;2.67;0.55;;;16.20;56.70;;;;;;5080479;28;20119;-48
2021/12/07 10:51:37;;;;;;;1.48;0.93;;;16.30;56.70;;;;;;5077054;28;20043;-49
2021/12/07 10:54:05;;;;;;;0.90;0.60;;;16.20;56.60;;;;;;5071983;28;20036;-53
2021/12/07 10:56:34;;;;;;;1.85;0.70;;;16.20;56.50;;;;;;5075147;28;20036;-50
2021/12/07 10:59:06;;;;;;;2.90;0.45;;;16.20;56.50;;;;;;5070591;28;20041;-47
2021/12/07 11:01:37;;;;;;;0.90;0.57;;;16.20;56.40;;;;;;5072773;28;20047;-48
2021/12/07 11:04:24;;;;;;;4.05;0.50;;;16.30;56.50;;;;;;5077548;28;20509;-50
2021/12/07 11:07:10;;;;;;;1.67;0.88;;;16.30;56.30;;;;;;5073519;28;20525;-49
2021/12/07 11:09:39;;;;;;;1.65;0.63;;;16.30;56.30;;;;;;5079747;28;20060;-50
2021/12/07 11:12:08;;;;;;;2.10;1.00;;;16.20;56.30;;;;;;5072072;28;20500;-49
2021/12/07 11:14:47;;;;;;;2.45;0.60;;;16.20;56.30;;;;;;5074467;28;20052;-53
2021/12/07 11:17:15;;;;;;;3.03;0.85;;;16.30;56.30;;;;;;5070501;28;20070;-51
2021/12/07 11:19:42;;;;;;;5.22;0.80;;;16.30;56.30;;;;;;5074167;28;20052;-48
2021/12/07 11:22:12;;;;;;;2.05;0.77;;;16.30;56.20;;;;;;5076385;28;20051;-49
2021/12/07 11:24:43;;;;;;;1.20;0.50;;;16.30;56.20;;;;;;5075124;28;20127;-47
2021/12/07 11:30:05;;;;;;;1.77;1.23;;;16.30;56.10;;;;;;5073060;28;20119;-52
2021/12/07 11:32:33;;;;;;;3.47;0.73;;;16.30;56.00;;;;;;5069437;28;20044;-47
2021/12/07 11:35:10;;;;;;;1.92;1.08;;;16.30;56.00;;;;;;5072347;28;20051;-50
2021/12/07 11:37:40;;;;;;;5.13;0.93;;;16.30;55.80;;;;;;5075089;28;20534;-50
2021/12/07 11:40:09;;;;;;;6.35;0.95;;;16.30;55.90;;;;;;5071667;28;20594;-49
2021/12/07 11:42:41;;;;;;;3.25;0.50;;;16.30;55.70;;;;;;5076516;28;20110;-50
2021/12/07 11:45:15;;;;;;;3.45;0.73;;;16.30;55.70;;;;;;5072921;28;20055;-46
2021/12/07 11:47:45;;;;;;;2.95;0.85;;;16.30;56.30;;;;;;5072236;28;20509;-49
2021/12/07 11:50:19;;;;;;;1.95;0.60;;;16.30;55.60;;;;;;5069596;28;20049;-51
2021/12/07 11:52:47;;;;;;;1.73;0.30;;;16.40;55.60;;;;;;5073315;28;20040;-52
2021/12/07 11:55:15;;;;;;;3.80;0.80;;;16.30;55.50;;;;;;5081414;28;20041;-47
2021/12/07 11:57:42;;;;;;;1.95;0.52;;;16.30;55.50;;;;;;5079691;28;20602;-53
2021/12/07 12:00:14;;;;;;;3.85;1.13;;;16.40;55.50;;;;;;5074840;28;20044;-50
2021/12/07 12:02:41;;;;;;;3.05;0.60;;;16.40;55.40;;;;;;5075620;28;20048;-48
2021/12/07 12:05:09;;;;;;;3.15;0.57;;;16.40;55.40;;;;;;5077499;28;20040;-51
2021/12/07 12:07:40;;;;;;;3.60;0.80;;;16.40;55.40;;;;;;5065580;28;20542;-48
2021/12/07 12:10:12;;;;;;;5.13;0.73;;;16.40;55.40;;;;;;5078425;28;20077;-47
2021/12/07 12:12:53;;;;;;;2.97;1.23;;;16.40;55.30;;;;;;5080948;28;20055;-47
2021/12/07 12:15:37;;;;;;;4.60;1.35;;;16.40;55.30;;;;;;5060632;28;20150;-47
2021/12/07 12:18:14;;;;;;;3.13;1.02;;;16.50;55.30;;;;;;5074509;28;20035;-49
2021/12/07 12:20:55;;;;;;;;;;;16.40;55.20;;;;;;5076476;28;20466;-50
2021/12/07 12:23:42;;;;;;;2.45;0.90;;;16.40;55.20;;;;;;5071994;28;19962;-49
2021/12/07 12:26:11;;;;;;;4.05;0.82;;;16.40;55.30;;;;;;5076914;28;20048;-48
2021/12/07 12:28:47;;;;;;;3.42;1.35;;;16.40;55.20;;;;;;5081463;28;20511;-48
2021/12/07 12:31:16;;;;;;;5.00;0.85;;;16.40;55.20;;;;;;5075118;28;20048;-52
2021/12/07 12:33:50;;;;;;;5.55;0.50;;;16.40;55.10;;;;;;5074970;28;20044;-51
2021/12/07 12:36:17;;;;;;;2.90;0.50;;;16.40;55.10;;;;;;5076474;28;20059;-50
2021/12/07 12:38:48;;;;;;;2.10;0.45;;;16.40;55.00;;;;;;5075331;28;20135;-49
2021/12/07 12:41:17;;;;;;;2.03;0.45;;;16.40;54.90;;;;;;5072284;28;20040;-47
2021/12/07 12:43:50;;;;;;;3.47;0.68;;;16.50;54.90;;;;;;5078105;28;20044;-48
2021/12/07 12:46:21;;;;;;;4.28;0.70;;;16.50;54.80;;;;;;5081303;28;20451;-51
2021/12/07 12:48:51;;;;;;;2.83;0.40;;;16.50;54.80;;;;;;5077265;28;20036;-48
2021/12/07 12:51:18;;;;;;;2.20;1.05;;;16.50;54.70;;;;;;5075423;28;20135;-49
2021/12/07 12:53:48;;;;;;;4.05;0.50;;;16.50;54.60;;;;;;5074692;28;20465;-50
2021/12/07 12:56:18;;;;;;;6.30;1.40;;;16.50;54.60;;;;;;5067923;28;20044;-50
2021/12/07 12:58:48;;;;;;;4.35;0.32;;;16.50;54.60;;;;;;5086604;28;20530;-50
2021/12/07 13:01:23;;;;;;;2.45;0.60;;;16.50;54.60;;;;;;5077634;28;20074;-47
2021/12/07 13:04:08;;;;;;;3.85;0.30;;;16.50;54.50;;;;;;5080984;28;20097;-51
2021/12/07 13:06:50;;;;;;;3.90;0.43;;;16.50;54.50;;;;;;5077651;28;20063;-49
2021/12/07 13:09:37;;;;;;;6.05;0.95;;;16.50;54.40;;;;;;5075575;28;20751;-49
2021/12/07 13:12:07;;;;;;;3.42;1.27;;;16.50;55.10;;;;;;5075266;28;20036;-50
2021/12/07 13:14:39;;;;;;;2.75;0.65;;;16.50;54.40;;;;;;5070278;28;20119;-50
2021/12/07 13:17:19;;;;;;;4.03;0.63;;;16.50;54.40;;;;;;5071934;28;20055;-50
2021/12/07 13:20:07;;;;;;;3.92;0.28;;;16.50;54.40;;;;;;5075840;28;20051;-50
2021/12/07 13:22:36;;;;;;;5.93;0.57;;;16.50;54.30;;;;;;5073640;28;20041;-48
2021/12/07 13:25:09;;;;;;;1.63;0.30;;;16.50;54.30;;;;;;5078415;28;20503;-50
2021/12/07 13:27:37;;;;;;;2.28;0.50;;;16.50;54.40;;;;;;5082993;28;20042;-48
2021/12/07 13:30:09;;;;;;;2.35;0.88;;;16.40;54.30;;;;;;5078229;28;20081;-49
2021/12/07 13:32:37;;;;;;;4.32;0.25;;;16.50;54.30;;;;;;5072517;28;20074;-50
2021/12/07 13:35:07;;;;;;;3.38;0.60;;;16.50;54.30;;;;;;5065840;28;20075;-53
2021/12/07 13:37:50;;;;;;;2.47;0.22;;;16.50;54.30;;;;;;5079130;28;20044;-52
2021/12/07 13:40:20;;;;;;;3.55;0.93;;;16.50;54.20;;;;;;5074643;28;20571;-53
2021/12/07 13:42:50;;;;;;;4.43;0.20;;;16.40;54.20;;;;;;5076019;28;20055;-51
2021/12/07 13:45:19;;;;;;;2.25;0.43;;;16.50;54.20;;;;;;5076240;28;20046;-52
2021/12/07 13:47:50;;;;;;;0.70;0.20;;;16.50;54.20;;;;;;5075725;28;20416;-49
2021/12/07 13:50:21;;;;;;;1.83;0.52;;;16.50;54.20;;;;;;5071722;28;20099;-52
2021/12/07 13:52:51;;;;;;;0.82;0.40;;;16.50;54.20;;;;;;5058860;28;20110;-50
2021/12/07 13:55:21;;;;;;;3.05;0.30;;;16.50;54.20;;;;;;5078835;28;20042;-49
2021/12/07 13:57:51;;;;;;;1.85;0.30;;;16.50;54.20;;;;;;5081451;28;20060;-49
2021/12/07 14:00:21;;;;;;;2.83;0.70;;;16.50;54.10;;;;;;5074277;28;20044;-51
2021/12/07 14:02:54;;;;;;;4.93;0.40;;;16.50;54.10;;;;;;5073708;28;20040;-49
2021/12/07 14:05:23;;;;;;;1.35;0.30;;;16.50;54.10;;;;;;5070033;28;20054;-48
2021/12/07 14:07:51;;;;;;;4.80;1.35;;;16.50;54.10;;;;;;5056811;28;20039;-48
2021/12/07 14:10:22;;;;;;;1.40;0.25;;;16.50;54.60;;;;;;5077220;28;20513;-48
2021/12/07 14:12:53;;;;;;;2.97;0.20;;;16.50;54.00;;;;;;5072644;28;20111;-48
2021/12/07 14:15:23;;;;;;;4.60;0.75;;;16.50;54.00;;;;;;5073783;28;20054;-50
2021/12/07 14:17:54;;;;;;;1.50;0.20;;;16.50;53.90;;;;;;5072759;28;20044;-50
2021/12/07 14:20:30;;;;;;;1.05;0.13;;;16.50;53.90;;;;;;5073870;28;20054;-48